M I D A S
Marine Information and Data Acquisition System
Tripno 1673 of the Zeeleeuw from 2009-04-08 07:38:57 to 2009-04-08 15:30:15
Back to CruiseResearch ActivitiesStationsMapUnderway DataData graphs

EquipmentUnitsComment
TimeDGPSUTC
LatitudeDGPSDM.mWGS84
LongitudeDGPSDM.mWGS84
HeadingGyrodeg 
SOGDGPSknotsSpeed over ground
COGDGPSdegCourse over ground
DepthEcho soundermeters200 kHz
Missing or incorrect values are displayed as -999
Navigation data collected by the RV Zeeleeuw from 2009-04-08 07:39:33 to 2009-04-08 15:44:35
Time Latitude Longitude Heading SOG COG Depth
2009-04-08 07:40:39 51°13.683 2°55.888 105.2 3.7 288 -999
2009-04-08 07:41:39 51°13.692 2°55.795 84.3 3.1 270 -999
2009-04-08 07:42:37 51°13.69 2°55.745 61.3 0.5 308 11.2
2009-04-08 07:43:35 51°13.714 2°55.746 355 2.5 346 11
2009-04-08 07:44:35 51°13.777 2°55.684 327.4 6.1 327 9.6
2009-04-08 07:45:35 51°13.887 2°55.591 336 8.4 334 10.3
2009-04-08 07:46:35 51°14.019 2°55.494 336.2 8.8 336 10.1
2009-04-08 07:47:35 51°14.153 2°55.389 332.2 9 329 -999
2009-04-08 07:48:35 51°14.273 2°55.238 316.7 9.2 315 10.2
2009-04-08 07:49:35 51°14.372 2°55.039 308.8 10 309 9.8
2009-04-08 07:50:35 51°14.506 2°54.858 333.3 11 329 9.7
2009-04-08 07:51:35 51°14.67 2°54.699 333.7 11.7 328 9.2
2009-04-08 07:52:35 51°14.836 2°54.535 332.8 11.7 328 9.1
2009-04-08 07:53:35 51°15.002 2°54.374 333.6 11.7 329 10.4
2009-04-08 07:54:35 51°15.166 2°54.209 333.2 11.6 328 10.5
2009-04-08 07:55:35 51°15.333 2°54.048 333.5 11.8 329 10.6
2009-04-08 07:56:35 51°15.5 2°53.885 333.4 11.7 329 11
2009-04-08 07:57:35 51°15.666 2°53.722 333.6 11.8 328 10.9
2009-04-08 07:58:35 51°15.832 2°53.56 335.2 11.7 330 10.7
2009-04-08 07:59:35 51°16.001 2°53.404 335.8 11.7 330 11
2009-04-08 08:00:35 51°16.169 2°53.248 337 11.8 330 11.3
2009-04-08 08:01:35 51°16.345 2°53.111 339.7 11.7 336 11.4
2009-04-08 08:02:35 51°16.522 2°52.983 340.1 11.7 335 11.3
2009-04-08 08:03:35 51°16.697 2°52.855 339.7 11.5 336 10.7
2009-04-08 08:04:35 51°16.869 2°52.73 341.2 11.3 337 9
2009-04-08 08:05:35 51°17.042 2°52.614 342.6 11.3 336 9.4
2009-04-08 08:06:35 51°17.218 2°52.54 2.6 10.8 6 9.6
2009-04-08 08:07:35 51°17.37 2°52.671 48.7 10.8 50 9.8
2009-04-08 08:08:35 51°17.469 2°52.911 59 10.8 59 9.7
2009-04-08 08:09:35 51°17.565 2°53.153 55.4 10.9 57 9.5
2009-04-08 08:10:35 51°17.669 2°53.385 55.2 10.8 46 9.5
2009-04-08 08:11:35 51°17.778 2°53.61 53.4 10.8 55 9.6
2009-04-08 08:12:35 51°17.886 2°53.841 55.4 10.8 59 9.5
2009-04-08 08:13:35 51°17.993 2°54.07 53.9 10.9 51 9.4
2009-04-08 08:14:35 51°18.099 2°54.304 55.7 10.8 56 9.5
2009-04-08 08:15:35 51°18.204 2°54.538 56.2 11 52 9.6
2009-04-08 08:16:35 51°18.313 2°54.77 54.7 11 55 9.7
2009-04-08 08:17:35 51°18.423 2°54.999 53.9 10.6 52 9.9
2009-04-08 08:18:35 51°18.529 2°55.225 55.6 10.5 54 10.1
2009-04-08 08:19:35 51°18.634 2°55.456 57.8 10.8 54 10.1
2009-04-08 08:20:35 51°18.739 2°55.686 56.5 10.7 54 10.1
2009-04-08 08:21:35 51°18.845 2°55.916 56.8 10.8 53 10
2009-04-08 08:22:35 51°18.948 2°56.15 58.2 10.6 60 10.2
2009-04-08 08:23:35 51°19.054 2°56.377 54.6 10.6 55 10.2
2009-04-08 08:24:35 51°19.158 2°56.604 54.5 10.3 56 10.1
2009-04-08 08:25:35 51°19.26 2°56.835 54.5 10.9 51 10
2009-04-08 08:26:35 51°19.371 2°57.06 53.4 10.7 44 10.1
2009-04-08 08:27:35 51°19.478 2°57.282 54.1 10.6 50 10.1
2009-04-08 08:28:35 51°19.579 2°57.512 60.5 10.6 63 10.2
2009-04-08 08:29:35 51°19.655 2°57.768 68.1 10.4 72 10
2009-04-08 08:30:35 51°19.727 2°58.028 69 10.8 68 10.1
2009-04-08 08:31:35 51°19.799 2°58.294 67.4 11.3 62 10
2009-04-08 08:32:35 51°19.876 2°58.556 67.2 10.6 72 10
2009-04-08 08:33:35 51°19.953 2°58.818 66.4 11.1 62 9.8
2009-04-08 08:34:35 51°20.029 2°59.085 66.3 10.9 66 9.7
2009-04-08 08:35:35 51°20.106 2°59.349 65.7 11.1 59 9.7
2009-04-08 08:36:35 51°20.184 2°59.615 66.6 11 67 9.8
2009-04-08 08:37:35 51°20.262 2°59.882 66.4 11.4 61 9.9
2009-04-08 08:38:35 51°20.333 3°0.156 67.3 10.8 70 10
2009-04-08 08:39:35 51°20.405 3°0.432 67.6 11.5 68 10
2009-04-08 08:40:35 51°20.482 3°0.708 65.9 11.4 65 10.1
2009-04-08 08:41:35 51°20.559 3°0.989 65.5 11.8 67 10
2009-04-08 08:42:35 51°20.633 3°1.265 67.2 11.3 69 10.1
2009-04-08 08:43:35 51°20.709 3°1.541 65.8 11.2 65 10.3
2009-04-08 08:44:35 51°20.792 3°1.817 65.4 11.6 62 10.1
2009-04-08 08:45:35 51°20.869 3°2.096 66 11.4 66 10.1
2009-04-08 08:46:35 51°20.949 3°2.373 66.6 11.3 66 10.1
2009-04-08 08:47:35 51°21.031 3°2.648 66.9 11.5 67 10.4
2009-04-08 08:48:35 51°21.109 3°2.93 67 11.6 66 10.5
2009-04-08 08:49:35 51°21.186 3°3.211 68.1 11.2 70 10.5
2009-04-08 08:50:35 51°21.259 3°3.494 70.1 11.5 70 10.6
2009-04-08 08:51:35 51°21.334 3°3.777 67.1 11.5 66 10.9
2009-04-08 08:52:35 51°21.403 3°4.064 71.2 11.7 69 11.1
2009-04-08 08:53:35 51°21.466 3°4.357 72.6 11.8 70 11.2
2009-04-08 08:54:35 51°21.534 3°4.651 69.8 12 70 11.2
2009-04-08 08:55:35 51°21.6 3°4.945 71.4 12 67 11.2
2009-04-08 08:56:35 51°21.666 3°5.24 71.3 11.7 70 11.4
2009-04-08 08:57:35 51°21.736 3°5.533 68.9 11.6 73 11.3
2009-04-08 08:58:35 51°21.803 3°5.825 70 11.8 68 11.4
2009-04-08 08:59:35 51°21.873 3°6.119 72 11.8 67 11.6
2009-04-08 09:00:35 51°21.943 3°6.415 68.8 11.9 70 11.9
2009-04-08 09:01:35 51°22.011 3°6.713 69.8 11.9 69 12
2009-04-08 09:02:35 51°22.079 3°7.011 69.9 12.2 68 12.2
2009-04-08 09:03:35 51°22.144 3°7.314 71.5 12 70 12.4
2009-04-08 09:04:35 51°22.212 3°7.615 69.3 11.9 70 12.4
2009-04-08 09:05:35 51°22.28 3°7.917 71.3 12.2 72 12.5
2009-04-08 09:06:35 51°22.347 3°8.217 69.6 12.2 70 12.7
2009-04-08 09:07:35 51°22.416 3°8.515 70.7 12 74 12.8
2009-04-08 09:08:35 51°22.484 3°8.813 71.8 12.3 68 13.2
2009-04-08 09:09:35 51°22.55 3°9.113 69.8 11.8 74 13.3
2009-04-08 09:10:35 51°22.616 3°9.416 69 11.9 72 13.3
2009-04-08 09:11:35 51°22.679 3°9.715 72.8 11.8 73 14
2009-04-08 09:12:35 51°22.746 3°10.019 70.9 12 73 18.4
2009-04-08 09:13:35 51°22.819 3°10.316 63.6 12.1 67 14.4
2009-04-08 09:14:35 51°22.949 3°10.547 33.7 11.7 34 13.6
2009-04-08 09:15:35 51°23.132 3°10.598 355.9 11.3 358 13.1
2009-04-08 09:16:35 51°23.316 3°10.52 340.5 11.5 341 13.3
2009-04-08 09:17:35 51°23.487 3°10.406 333.2 9.7 335 14.3
2009-04-08 09:18:35 51°23.595 3°10.35 353 5.3 6 14.2
2009-04-08 09:19:35 51°23.651 3°10.427 67.5 3.7 68 14.3
2009-04-08 09:20:35 51°23.662 3°10.503 98 2.5 82 14.1
2009-04-08 09:21:35 51°23.668 3°10.561 110.9 2 81 14.1
2009-04-08 09:22:35 51°23.672 3°10.614 110.4 2 83 14.1
2009-04-08 09:23:35 51°23.677 3°10.689 92.7 3.8 85 14
2009-04-08 09:24:35 51°23.677 3°10.806 105 4.5 95 14
2009-04-08 09:25:35 51°23.662 3°10.914 120.9 4 105 13.9
2009-04-08 09:26:35 51°23.646 3°11.019 116 4.2 101 13.6
2009-04-08 09:27:35 51°23.638 3°11.13 106.7 4.2 95 13.5
2009-04-08 09:28:35 51°23.642 3°11.242 86.1 4.2 78 13.3
2009-04-08 09:29:35 51°23.657 3°11.351 83.4 4.1 77 13.3
2009-04-08 09:30:35 51°23.678 3°11.454 70.3 4.1 67 13.2
2009-04-08 09:31:35 51°23.705 3°11.551 64.6 4 67 13.2
2009-04-08 09:32:35 51°23.73 3°11.649 71.7 4 71 13.2
2009-04-08 09:33:35 51°23.751 3°11.749 72.7 4 70 13
2009-04-08 09:34:35 51°23.774 3°11.849 70.7 4 70 13
2009-04-08 09:35:35 51°23.798 3°11.949 69.8 4.1 69 13
2009-04-08 09:36:35 51°23.824 3°12.049 66.9 4 66 13
2009-04-08 09:37:35 51°23.852 3°12.147 65.5 4 65 13.2
2009-04-08 09:38:35 51°23.879 3°12.247 68.4 4.1 67 13.3
2009-04-08 09:39:35 51°23.904 3°12.349 76.2 4.1 70 13.5
2009-04-08 09:40:35 51°23.923 3°12.453 85 4 77 13.6
2009-04-08 09:41:35 51°23.935 3°12.556 93.7 3.9 80 13.6
2009-04-08 09:42:35 51°23.943 3°12.658 103.9 3.9 87 13.5
2009-04-08 09:43:35 51°23.942 3°12.759 116.6 3.8 93 13.4
2009-04-08 09:44:35 51°23.936 3°12.858 125 3.7 98 13.2
2009-04-08 09:45:35 51°23.925 3°12.951 132.3 3.5 101 13.2
2009-04-08 09:46:35 51°23.911 3°13.044 139.7 3.7 106 12.8
2009-04-08 09:47:35 51°23.889 3°13.138 143.8 3.7 111 12.9
2009-04-08 09:48:35 51°23.869 3°13.234 141.8 3.9 108 12.7
2009-04-08 09:49:35 51°23.848 3°13.333 140.2 3.9 109 12.5
2009-04-08 09:50:35 51°23.827 3°13.432 138.8 4 107 12.5
2009-04-08 09:51:35 51°23.808 3°13.536 137.8 4 107 12.5
2009-04-08 09:52:35 51°23.789 3°13.64 135.4 4.1 105 12.6
2009-04-08 09:53:35 51°23.771 3°13.746 135.3 4.1 108 12.7
2009-04-08 09:54:35 51°23.753 3°13.854 134.1 4.3 103 12.7
2009-04-08 09:55:35 51°23.736 3°13.961 136.3 4.2 105 12.7
2009-04-08 09:56:35 51°23.718 3°14.068 132.8 4.2 104 13
2009-04-08 09:57:35 51°23.708 3°14.186 112.6 4.7 93 13
2009-04-08 09:58:35 51°23.706 3°14.312 105 4.9 90 12.7
2009-04-08 09:59:35 51°23.704 3°14.439 113.9 4.7 94 13.1
2009-04-08 10:00:35 51°23.694 3°14.558 122.8 4.4 99 13.1
2009-04-08 10:01:35 51°23.685 3°14.675 124.1 4.4 96 12.5
2009-04-08 10:02:35 51°23.676 3°14.789 127.1 4.5 99 13.2
2009-04-08 10:03:35 51°23.665 3°14.906 127.9 4.1 95 12.4
2009-04-08 10:04:35 51°23.664 3°15.007 126.9 3.5 88 12.2
2009-04-08 10:05:35 51°23.668 3°15.097 126.5 3.3 83 12.4
2009-04-08 10:06:35 51°23.675 3°15.182 125 3.2 80 12.1
2009-04-08 10:07:35 51°23.686 3°15.266 121.5 3.5 82 12.2
2009-04-08 10:08:35 51°23.692 3°15.376 105.2 4.8 87 12.2
2009-04-08 10:09:35 51°23.707 3°15.519 66.7 5.9 69 12.3
2009-04-08 10:10:35 51°23.767 3°15.627 1.2 4.9 30 12.4
2009-04-08 10:11:35 51°23.882 3°15.637 340.5 9 354 13.3
2009-04-08 10:12:35 51°24.054 3°15.608 343.4 11.2 355 14.3
2009-04-08 10:13:35 51°24.243 3°15.576 342.1 11.6 354 14.4
2009-04-08 10:14:35 51°24.437 3°15.546 341.2 11.7 354 18.8
2009-04-08 10:15:35 51°24.629 3°15.514 341.6 11.5 355 19.7
2009-04-08 10:16:35 51°24.822 3°15.489 342.6 11.5 353 18.8
2009-04-08 10:17:35 51°25.006 3°15.43 333.2 11.1 345 17.2
2009-04-08 10:18:35 51°25.174 3°15.322 324 10.7 334 15.1
2009-04-08 10:19:35 51°25.334 3°15.195 324.4 10.8 333 12.8
2009-04-08 10:20:35 51°25.494 3°15.065 325.2 10.8 333 10.9
2009-04-08 10:21:35 51°25.652 3°14.932 325.1 10.8 332 10.1
2009-04-08 10:22:35 51°25.809 3°14.796 325.8 10.7 330 9.5
2009-04-08 10:23:35 51°25.965 3°14.66 325.6 10.6 332 8.9
2009-04-08 10:24:35 51°26.118 3°14.523 325.3 10.6 331 8.9
2009-04-08 10:25:35 51°26.274 3°14.388 327.9 10.6 334 9
2009-04-08 10:26:35 51°26.444 3°14.303 343.1 10.9 349 9.4
2009-04-08 10:27:35 51°26.628 3°14.276 347.7 11.1 353 9.7
2009-04-08 10:28:35 51°26.813 3°14.255 349.2 10.3 355 9.8
2009-04-08 10:29:35 51°26.917 3°14.243 325.5 3.4 354 9.6
2009-04-08 10:30:35 51°26.964 3°14.247 336.1 3 15 10.4
2009-04-08 10:31:35 51°27.015 3°14.309 32.3 4.9 58 10.4
2009-04-08 10:32:35 51°27.039 3°14.447 80.7 5.1 83 10.3
2009-04-08 10:33:35 51°27.043 3°14.571 97.2 4.3 89 10.3
2009-04-08 10:34:35 51°27.042 3°14.679 106 4 92 10.3
2009-04-08 10:35:35 51°27.038 3°14.785 109.5 4 91 10.1
2009-04-08 10:36:35 51°27.031 3°14.889 109 4.1 94 10.3
2009-04-08 10:37:35 51°27.032 3°15.005 95.6 4.3 86 10.3
2009-04-08 10:38:35 51°27.036 3°15.122 90.5 4.4 84 10.3
2009-04-08 10:39:35 51°27.041 3°15.239 94.9 4.3 88 10
2009-04-08 10:40:35 51°27.045 3°15.352 93.2 4.3 86 10.1
2009-04-08 10:41:35 51°27.051 3°15.466 93 4.3 83 10.1
2009-04-08 10:42:35 51°27.058 3°15.578 91.7 4.3 85 10
2009-04-08 10:43:35 51°27.066 3°15.689 90.1 4.3 82 10
2009-04-08 10:44:35 51°27.074 3°15.799 86.9 4.1 84 10
2009-04-08 10:45:35 51°27.084 3°15.907 85.4 4.2 80 10
2009-04-08 10:46:35 51°27.095 3°16.015 80.3 4.1 78 9.9
2009-04-08 10:47:35 51°27.111 3°16.12 72.7 4 75 9.9
2009-04-08 10:48:35 51°27.132 3°16.224 60 4.1 70 9.9
2009-04-08 10:49:35 51°27.16 3°16.319 41.2 3.8 62 9.9
2009-04-08 10:50:35 51°27.198 3°16.397 14.5 3.5 47 10
2009-04-08 10:51:35 51°27.242 3°16.454 0.8 3.3 33 9.8
2009-04-08 10:52:35 51°27.288 3°16.502 351.2 3.2 28 10.3
2009-04-08 10:53:35 51°27.335 3°16.54 344.2 3.2 28 10.2
2009-04-08 10:54:35 51°27.378 3°16.572 336.7 2.7 24 10.3
2009-04-08 10:55:35 51°27.42 3°16.594 329.6 2.5 17 10.3
2009-04-08 10:56:35 51°27.463 3°16.614 329.4 2.6 18 10
2009-04-08 10:57:35 51°27.506 3°16.636 333.2 2.8 15 11.1
2009-04-08 10:58:35 51°27.553 3°16.664 342.7 3.2 25 10.8
2009-04-08 10:59:35 51°27.605 3°16.709 4.7 3.8 33 10.7
2009-04-08 11:00:35 51°27.657 3°16.762 358.1 3.5 29 10.9
2009-04-08 11:01:35 51°27.708 3°16.806 352.4 3.6 31 10.5
2009-04-08 11:02:35 51°27.76 3°16.847 352 3.4 27 10.9
2009-04-08 11:03:35 51°27.812 3°16.892 359.3 3.7 30 11
2009-04-08 11:04:35 51°27.865 3°16.953 18.3 4.1 43 10.8
2009-04-08 11:05:35 51°27.912 3°17.034 24.6 4.1 47 10.4
2009-04-08 11:06:35 51°27.959 3°17.102 5 3.5 39 10.2
2009-04-08 11:07:35 51°28.005 3°17.145 343.2 2.9 27 9.6
2009-04-08 11:08:35 51°28.047 3°17.167 326.9 2.6 13 10.2
2009-04-08 11:09:35 51°28.093 3°17.192 341.8 3.4 21 10.5
2009-04-08 11:10:35 51°28.148 3°17.23 2.5 4 29 10.9
2009-04-08 11:11:35 51°28.202 3°17.302 31.4 4.4 50 11.1
2009-04-08 11:12:35 51°28.239 3°17.404 66.4 4.4 69 11.1
2009-04-08 11:13:35 51°28.256 3°17.512 92.3 4 82 10.5
2009-04-08 11:14:35 51°28.262 3°17.613 106.6 3.5 84 10.5
2009-04-08 11:15:35 51°28.266 3°17.699 116.3 3.1 88 10.6
2009-04-08 11:16:35 51°28.269 3°17.779 120 3 87 10.6
2009-04-08 11:17:35 51°28.272 3°17.855 124.2 3 89 10
2009-04-08 11:18:35 51°28.252 3°17.941 161.8 3.3 132 10.5
2009-04-08 11:19:35 51°28.215 3°17.97 219.8 2.2 205 10.4
2009-04-08 11:20:35 51°28.165 3°17.855 240.5 7.3 238 10.1
2009-04-08 11:21:35 51°28.089 3°17.66 240.9 9.6 238 10.3
2009-04-08 11:22:35 51°28.003 3°17.441 239.7 9.6 235 10.1
2009-04-08 11:23:35 51°27.917 3°17.218 241 10 238 10.4
2009-04-08 11:24:35 51°27.831 3°16.995 240.5 9.7 237 10.9
2009-04-08 11:25:35 51°27.744 3°16.773 239.7 10 238 10.9
2009-04-08 11:26:35 51°27.656 3°16.547 241.1 9.9 239 11
2009-04-08 11:27:35 51°27.57 3°16.32 240.2 9.9 237 11
2009-04-08 11:28:35 51°27.484 3°16.089 240.7 10.1 241 11
2009-04-08 11:29:35 51°27.409 3°15.849 245 10.1 246 11
2009-04-08 11:30:35 51°27.339 3°15.605 246 10.1 247 10.7
2009-04-08 11:31:35 51°27.27 3°15.36 245.4 10.1 246 10.7
2009-04-08 11:32:35 51°27.202 3°15.116 246.1 10.1 246 10.7
2009-04-08 11:33:35 51°27.133 3°14.873 245.9 10 246 10.7
2009-04-08 11:34:35 51°27.064 3°14.63 245.1 10.1 246 10.8
2009-04-08 11:35:35 51°26.997 3°14.399 244 7.4 244 10.8
2009-04-08 11:36:35 51°26.968 3°14.289 241.4 2.7 245 11
2009-04-08 11:37:35 51°26.966 3°14.259 254.4 0.5 358 11.1
2009-04-08 11:38:35 51°26.982 3°14.276 269.7 1.5 40 11
2009-04-08 11:39:35 51°27.002 3°14.31 296.9 1.9 57 11
2009-04-08 11:40:35 51°27.02 3°14.351 312.9 2 56 11.1
2009-04-08 11:41:35 51°27.035 3°14.394 324.2 1.9 63 10.9
2009-04-08 11:42:35 51°27.048 3°14.439 333.6 1.5 63 11
2009-04-08 11:43:35 51°27.062 3°14.483 338.6 1.9 57 10.9
2009-04-08 11:44:35 51°27.077 3°14.525 336 1.5 60 11.1
2009-04-08 11:45:35 51°27.091 3°14.566 332.4 1.7 63 11.2
2009-04-08 11:46:35 51°27.105 3°14.61 328.3 1.9 66 11
2009-04-08 11:47:35 51°27.118 3°14.656 331.6 1.9 66 11.2
2009-04-08 11:48:35 51°27.129 3°14.7 333.9 1.7 69 10.9
2009-04-08 11:49:35 51°27.141 3°14.745 338.6 1.8 69 11.1
2009-04-08 11:50:35 51°27.153 3°14.787 341.2 1.6 63 10.9
2009-04-08 11:51:35 51°27.167 3°14.829 338.4 2 59 11.1
2009-04-08 11:52:35 51°27.181 3°14.869 334.7 1.6 65 10.9
2009-04-08 11:53:35 51°27.195 3°14.91 328.3 1.7 62 11
2009-04-08 11:54:35 51°27.208 3°14.953 330.9 1.8 66 10.8
2009-04-08 11:55:35 51°27.222 3°14.995 331.2 1.8 62 10.8
2009-04-08 11:56:35 51°27.237 3°15.036 330.6 1.9 59 11
2009-04-08 11:57:35 51°27.254 3°15.077 323.2 1.9 49 11
2009-04-08 11:58:36 51°27.297 3°15.073 317.6 4 340 11
2009-04-08 11:59:35 51°27.392 3°14.983 318 8.6 323 11
2009-04-08 12:00:35 51°27.511 3°14.813 310.5 10.3 315 11.2
2009-04-08 12:01:35 51°27.64 3°14.606 310.3 11.2 314 11.1
2009-04-08 12:02:35 51°27.764 3°14.378 305.5 11.4 311 11.3
2009-04-08 12:03:35 51°27.885 3°14.146 304.9 11.4 308 11.1
2009-04-08 12:04:35 51°28.007 3°13.917 305.2 11.4 310 11.4
2009-04-08 12:05:35 51°28.13 3°13.686 305.2 11.4 310 11.5
2009-04-08 12:06:35 51°28.252 3°13.458 305.9 11.6 312 11.8
2009-04-08 12:07:35 51°28.377 3°13.227 305.4 11.5 311 11.7
2009-04-08 12:08:35 51°28.499 3°12.998 304.9 11.2 311 11.9
2009-04-08 12:09:35 51°28.622 3°12.769 305.1 11.5 312 12.1
2009-04-08 12:10:35 51°28.746 3°12.538 304.5 11.4 310 12.5
2009-04-08 12:11:35 51°28.87 3°12.308 304.5 11.2 310 12.8
2009-04-08 12:12:35 51°28.996 3°12.079 305.6 11.4 312 13.1
2009-04-08 12:13:35 51°29.124 3°11.851 305.7 11.6 313 14.1
2009-04-08 12:14:36 51°29.253 3°11.62 304.9 11.5 312 15.2
2009-04-08 12:15:35 51°29.381 3°11.4 306.5 11.5 315 15.9
2009-04-08 12:16:35 51°29.511 3°11.177 304 11.4 313 16.4
2009-04-08 12:17:35 51°29.642 3°10.956 305.2 11.3 313 16.7
2009-04-08 12:18:35 51°29.771 3°10.731 304.9 11.5 312 17.7
2009-04-08 12:19:35 51°29.903 3°10.507 305.7 11.6 313 18.9
2009-04-08 12:20:35 51°30.036 3°10.284 305.6 11.7 315 19.5
2009-04-08 12:21:35 51°30.168 3°10.058 306.4 11.5 314 20
2009-04-08 12:22:35 51°30.296 3°9.832 300.7 11.3 310 20.4
2009-04-08 12:23:35 51°30.413 3°9.598 300.2 11.3 310 20.2
2009-04-08 12:24:35 51°30.529 3°9.365 299.8 11.3 311 21.5
2009-04-08 12:25:35 51°30.647 3°9.134 299.6 11.3 310 21.8
2009-04-08 12:26:35 51°30.768 3°8.909 299.8 11.1 310 22.5
2009-04-08 12:27:35 51°30.887 3°8.686 298 10.8 308 24.9
2009-04-08 12:28:35 51°30.996 3°8.452 296 11 306 24.6
2009-04-08 12:29:35 51°31.105 3°8.218 295.7 11 307 23.5
2009-04-08 12:30:36 51°31.217 3°7.981 295.8 11.1 306 25.3
2009-04-08 12:31:35 51°31.325 3°7.748 296.3 10.9 308 24
2009-04-08 12:32:36 51°31.435 3°7.507 296.2 11.2 306 24.8
2009-04-08 12:33:35 51°31.54 3°7.269 295.7 11.1 305 25.2
2009-04-08 12:34:35 51°31.653 3°7.032 299.6 11.3 310 26.1
2009-04-08 12:35:35 51°31.77 3°6.801 298.9 10.9 308 30.1
2009-04-08 12:36:35 51°31.888 3°6.575 299.5 10.8 310 31.5
2009-04-08 12:37:35 51°32.006 3°6.352 299.3 11.1 310 32.4
2009-04-08 12:38:35 51°32.124 3°6.126 298.9 11 309 32.1
2009-04-08 12:39:36 51°32.243 3°5.896 299.2 11 309 31.9
2009-04-08 12:40:35 51°32.36 3°5.672 300.4 11.1 312 31.4
2009-04-08 12:41:35 51°32.475 3°5.441 299.1 11.1 309 30.6
2009-04-08 12:42:35 51°32.595 3°5.214 299.3 11.3 310 31.6
2009-04-08 12:43:35 51°32.709 3°4.975 298.1 11.3 307 32.1
2009-04-08 12:44:35 51°32.819 3°4.731 300.5 11.1 308 33.7
2009-04-08 12:45:35 51°32.929 3°4.488 299.2 11.3 306 33.5
2009-04-08 12:46:36 51°33.039 3°4.237 298.5 11.4 305 28.5
2009-04-08 12:47:35 51°33.152 3°3.997 304.3 11.4 309 24.9
2009-04-08 12:48:36 51°33.277 3°3.754 304.2 11.7 312 21.7
2009-04-08 12:49:35 51°33.399 3°3.518 302.4 11.7 309 23
2009-04-08 12:50:36 51°33.526 3°3.274 303.3 11.8 310 23.9
2009-04-08 12:51:35 51°33.647 3°3.034 302.9 11.8 310 26.9
2009-04-08 12:52:35 51°33.77 3°2.792 303 11.6 309 33.2
2009-04-08 12:53:36 51°33.897 3°2.55 302.8 11.8 311 36.6
2009-04-08 12:54:35 51°34.021 3°2.317 303.3 11.8 313 35.3
2009-04-08 12:55:36 51°34.152 3°2.08 304.2 11.7 312 30.9
2009-04-08 12:56:35 51°34.28 3°1.849 303.7 11.8 311 21.3
2009-04-08 12:57:36 51°34.407 3°1.602 303.3 11.7 308 19.4
2009-04-08 12:58:35 51°34.532 3°1.364 303.5 11.8 309 18.5
2009-04-08 12:59:36 51°34.658 3°1.119 303.5 11.3 311 -999
2009-04-08 13:00:36 51°34.779 3°0.894 304.2 10.5 311 20.3
2009-04-08 13:01:35 51°34.886 3°0.696 303.2 9.1 315 23.7
2009-04-08 13:02:35 51°34.963 3°0.584 302.9 4.6 327 25.5
2009-04-08 13:03:35 51°35.008 3°0.562 295.8 1.9 18 26.2
2009-04-08 13:04:36 51°35.041 3°0.581 300.6 1.9 25 24.6
2009-04-08 13:05:35 51°35.075 3°0.607 304.1 2.4 28 24.7
2009-04-08 13:06:36 51°35.106 3°0.641 311.9 2.3 37 24.8
2009-04-08 13:07:35 51°35.136 3°0.674 322.3 2 36 26.9
2009-04-08 13:08:36 51°35.165 3°0.709 327.7 2.3 38 27.6
2009-04-08 13:09:36 51°35.193 3°0.744 329 2.3 38 26.9
2009-04-08 13:10:35 51°35.221 3°0.777 325.8 2.1 37 25.9
2009-04-08 13:11:36 51°35.251 3°0.812 326.7 2.1 33 26.5
2009-04-08 13:12:35 51°35.279 3°0.844 327 2 34 28.2
2009-04-08 13:13:36 51°35.323 3°0.858 322.5 4.9 344 27.4
2009-04-08 13:14:35 51°35.39 3°0.735 287.5 8.2 298 28.7
2009-04-08 13:15:36 51°35.439 3°0.472 276.1 10.5 283 30.6
2009-04-08 13:16:35 51°35.459 3°0.206 268.9 10.4 275 33.1
2009-04-08 13:17:36 51°35.475 2°59.919 268.1 10.6 273 33
2009-04-08 13:18:35 51°35.493 2°59.649 269.4 10 277 32.7
2009-04-08 13:19:35 51°35.501 2°59.372 263.6 10.6 269 32.5
2009-04-08 13:20:36 51°35.496 2°59.094 258.5 9.8 267 32
2009-04-08 13:21:35 51°35.471 2°58.838 255 9.9 261 28.5
2009-04-08 13:22:36 51°35.445 2°58.582 253.2 10 261 35.7
2009-04-08 13:23:36 51°35.412 2°58.336 251.8 9.7 259 32.7
2009-04-08 13:24:35 51°35.378 2°58.078 252.8 9.8 257 33.9
2009-04-08 13:25:36 51°35.343 2°57.82 249.8 9.5 254 33.5
2009-04-08 13:26:37 51°35.294 2°57.573 246.4 8.8 253 -999
2009-04-08 13:27:36 51°35.246 2°57.34 246.4 9.6 253 36.2
2009-04-08 13:28:35 51°35.197 2°57.103 246.9 9.3 253 36.5
2009-04-08 13:29:36 51°35.145 2°56.856 247.3 9.9 253 36.7
2009-04-08 13:30:36 51°35.096 2°56.614 247.1 9.6 255 36.3
2009-04-08 13:31:36 51°35.045 2°56.368 248.1 9.7 250 35.7
2009-04-08 13:32:36 51°34.996 2°56.131 246.7 9.2 252 35.8
2009-04-08 13:33:36 51°34.946 2°55.885 247.1 9.7 252 34.7
2009-04-08 13:34:36 51°34.898 2°55.646 247.5 9.4 251 33.2
2009-04-08 13:35:35 51°34.821 2°55.43 233.6 9.5 234 35.2
2009-04-08 13:36:35 51°34.709 2°55.255 219.3 9.3 216 33.5
2009-04-08 13:37:35 51°34.583 2°55.105 218.4 9.5 216 32.8
2009-04-08 13:38:36 51°34.455 2°54.948 218.6 9.3 218 32.3
2009-04-08 13:39:35 51°34.333 2°54.795 218.8 9.8 218 33.3
2009-04-08 13:40:36 51°34.199 2°54.643 214.8 9.5 212 31.9
2009-04-08 13:41:35 51°34.068 2°54.51 213.1 9.7 212 31.5
2009-04-08 13:42:36 51°33.932 2°54.37 214.8 9.2 213 31.9
2009-04-08 13:43:36 51°33.801 2°54.231 214.2 9 211 -999
2009-04-08 13:44:36 51°33.673 2°54.094 215.6 9.5 212 -999
2009-04-08 13:45:36 51°33.542 2°53.952 214.8 9.6 214 30.1
2009-04-08 13:46:35 51°33.41 2°53.809 215.2 9.6 214 30.3
2009-04-08 13:47:36 51°33.273 2°53.659 216.2 9.8 214 30.3
2009-04-08 13:48:36 51°33.145 2°53.52 215.1 9.2 216 29.2
2009-04-08 13:49:36 51°33.016 2°53.382 214.1 9.4 210 25.8
2009-04-08 13:50:36 51°32.885 2°53.24 215.6 9.7 214 30.4
2009-04-08 13:51:36 51°32.748 2°53.112 207 9.5 199 28.8
2009-04-08 13:52:35 51°32.588 2°53.06 191 10.1 187 28.5
2009-04-08 13:53:36 51°32.42 2°53.03 190.2 10.2 185 26.4
2009-04-08 13:54:36 51°32.256 2°52.999 190.2 10 186 28
2009-04-08 13:55:35 51°32.096 2°52.96 192.5 10.1 185 24.3
2009-04-08 13:56:36 51°31.928 2°52.916 191.7 10.2 185 24.2
2009-04-08 13:57:36 51°31.767 2°52.878 192.1 9.7 185 23.6
2009-04-08 13:58:36 51°31.603 2°52.835 193.3 10.1 189 24.5
2009-04-08 13:59:35 51°31.441 2°52.788 192.7 10.1 185 22
2009-04-08 14:00:36 51°31.274 2°52.737 193.2 10 192 22.8
2009-04-08 14:01:36 51°31.11 2°52.693 193.2 10.1 192 22.1
2009-04-08 14:02:36 51°30.947 2°52.65 191.9 9.8 186 21.7
2009-04-08 14:03:36 51°30.787 2°52.608 193.8 10 189 22
2009-04-08 14:04:35 51°30.627 2°52.566 192.8 9.9 189 20
2009-04-08 14:05:36 51°30.46 2°52.53 192.7 10.2 189 26.6
2009-04-08 14:06:36 51°30.291 2°52.492 191.8 10.1 189 28.6
2009-04-08 14:07:36 51°30.121 2°52.464 190.2 10.4 186 31.2
2009-04-08 14:08:36 51°29.948 2°52.442 190.9 10.5 184 30
2009-04-08 14:09:36 51°29.777 2°52.419 190.9 10.6 183 31.3
2009-04-08 14:10:36 51°29.603 2°52.393 189.9 10.5 184 31.5
2009-04-08 14:11:36 51°29.428 2°52.366 189.6 10.5 186 31.5
2009-04-08 14:12:36 51°29.255 2°52.339 190.6 10.4 183 31.1
2009-04-08 14:13:36 51°29.084 2°52.309 190.3 10.3 188 31.2
2009-04-08 14:14:36 51°28.91 2°52.279 190.5 10.4 188 30.6
2009-04-08 14:15:36 51°28.737 2°52.249 190.2 10.5 188 29.7
2009-04-08 14:16:36 51°28.564 2°52.215 191.1 10.5 188 29.2
2009-04-08 14:17:36 51°28.388 2°52.19 186.8 10.6 184 27.5
2009-04-08 14:18:36 51°28.212 2°52.172 186.7 10.5 184 26
2009-04-08 14:19:36 51°28.035 2°52.154 185.6 10.6 183 23.4
2009-04-08 14:20:36 51°27.856 2°52.159 181.8 10.6 178 21.1
2009-04-08 14:21:36 51°27.68 2°52.175 182.4 10.6 178 22.2
2009-04-08 14:22:35 51°27.506 2°52.179 183.7 10.6 180 21.6
2009-04-08 14:23:36 51°27.327 2°52.184 183.7 10.6 178 21.6
2009-04-08 14:24:36 51°27.15 2°52.189 183.3 10.5 182 21.1
2009-04-08 14:25:36 51°26.973 2°52.196 182.2 10.6 178 26.3
2009-04-08 14:26:36 51°26.795 2°52.201 183.1 10.8 181 28.1
2009-04-08 14:27:36 51°26.615 2°52.205 183.5 10.9 181 28.3
2009-04-08 14:28:36 51°26.434 2°52.207 183.2 10.9 180 27.7
2009-04-08 14:29:36 51°26.254 2°52.212 183 10.8 179 27.8
2009-04-08 14:30:36 51°26.075 2°52.215 184 10.7 182 27.6
2009-04-08 14:31:36 51°25.895 2°52.215 184.4 10.8 180 27.5
2009-04-08 14:32:36 51°25.715 2°52.217 183.7 10.8 182 26.5
2009-04-08 14:33:36 51°25.535 2°52.216 182.7 10.9 180 26.8
2009-04-08 14:34:36 51°25.355 2°52.214 183.6 10.8 181 26.9
2009-04-08 14:35:36 51°25.173 2°52.212 183 10.9 181 26.3
2009-04-08 14:36:36 51°24.99 2°52.207 183.6 10.9 183 25.7
2009-04-08 14:37:36 51°24.809 2°52.205 183.4 11 180 23.2
2009-04-08 14:38:36 51°24.626 2°52.199 183.3 11 181 22.4
2009-04-08 14:39:36 51°24.442 2°52.191 183.7 11 182 20.2
2009-04-08 14:40:36 51°24.26 2°52.185 183 11 181 18.5
2009-04-08 14:41:36 51°24.077 2°52.179 183 10.9 184 16
2009-04-08 14:42:36 51°23.896 2°52.174 183.1 10.8 185 18.3
2009-04-08 14:43:36 51°23.715 2°52.167 183.1 10.9 179 17.8
2009-04-08 14:44:36 51°23.535 2°52.16 183.7 10.8 183 18.1
2009-04-08 14:45:36 51°23.354 2°52.156 184.1 10.9 180 20.8
2009-04-08 14:46:36 51°23.171 2°52.151 183.7 11.1 180 23.9
2009-04-08 14:47:36 51°22.986 2°52.149 182.5 11.1 179 24.1
2009-04-08 14:48:36 51°22.801 2°52.144 183.7 11.1 183 23.7
2009-04-08 14:49:36 51°22.617 2°52.138 183.4 11.1 179 23.5
2009-04-08 14:50:36 51°22.432 2°52.135 183.6 11.1 180 23.4
2009-04-08 14:51:36 51°22.248 2°52.128 183.5 11.1 183 24.4
2009-04-08 14:52:36 51°22.064 2°52.124 183 11.2 177 24.7
2009-04-08 14:53:36 51°21.878 2°52.116 183.4 11.2 182 24.8
2009-04-08 14:54:36 51°21.692 2°52.11 182.9 11.2 182 23.3
2009-04-08 14:55:36 51°21.506 2°52.102 183.2 11.2 181 21.7
2009-04-08 14:56:36 51°21.318 2°52.104 182.3 11.4 180 19.4
2009-04-08 14:57:36 51°21.136 2°52.087 185.2 11 184 17.6
2009-04-08 14:58:36 51°20.952 2°52.077 181.2 11.2 178 16.1
2009-04-08 14:59:36 51°20.766 2°52.071 180.2 11.2 182 14.6
2009-04-08 15:00:36 51°20.579 2°52.083 177.4 11.2 178 14.8
2009-04-08 15:01:36 51°20.39 2°52.094 177.3 11.2 179 14.8
2009-04-08 15:02:36 51°20.202 2°52.107 177.4 11.3 179 15.4
2009-04-08 15:03:36 51°20.013 2°52.12 178.6 11.4 177 16.4
2009-04-08 15:04:36 51°19.825 2°52.137 178.1 11.3 178 16.7
2009-04-08 15:05:36 51°19.635 2°52.151 177.9 11.4 176 16.5
2009-04-08 15:06:36 51°19.445 2°52.164 178.6 11.5 175 15.9
2009-04-08 15:07:36 51°19.254 2°52.175 178.6 11.4 179 15.7
2009-04-08 15:08:36 51°19.064 2°52.185 178.7 11.4 177 14.6
2009-04-08 15:09:36 51°18.875 2°52.196 178.6 11.4 181 13.8
2009-04-08 15:10:36 51°18.686 2°52.207 178.7 11.4 179 12.8
2009-04-08 15:11:36 51°18.497 2°52.215 176.9 11.2 177 12
2009-04-08 15:12:36 51°18.309 2°52.228 177.9 11.3 178 11.7
2009-04-08 15:13:36 51°18.121 2°52.24 178.2 11.3 180 11.2
2009-04-08 15:14:36 51°17.932 2°52.251 179.3 11.4 177 10.8
2009-04-08 15:15:36 51°17.742 2°52.259 177.2 11.4 179 10.8
2009-04-08 15:16:36 51°17.553 2°52.268 178 11.4 179 10.8
2009-04-08 15:17:36 51°17.363 2°52.278 177.3 11.4 177 10.9
2009-04-08 15:18:36 51°17.172 2°52.284 178.4 11.6 179 10.8
2009-04-08 15:19:36 51°16.98 2°52.295 177.9 11.5 174 10.3
2009-04-08 15:20:36 51°16.794 2°52.358 163.4 11.6 157 10.9
2009-04-08 15:21:36 51°16.62 2°52.484 153.7 11.5 154 11.3
2009-04-08 15:22:36 51°16.454 2°52.643 149.3 11.6 150 12.1
2009-04-08 15:23:36 51°16.281 2°52.778 155.7 11.7 157 12.3
2009-04-08 15:24:36 51°16.103 2°52.901 155.7 11.6 156 12.2
2009-04-08 15:25:36 51°15.929 2°53.03 155.6 11.5 156 12
2009-04-08 15:26:36 51°15.753 2°53.157 155.3 11.7 159 11.7
2009-04-08 15:27:36 51°15.573 2°53.282 154 11.8 158 10.9
2009-04-08 15:28:36 51°15.395 2°53.408 155.4 11.8 157 10.7
2009-04-08 15:29:36 51°15.213 2°53.536 155 12.1 157 10
2009-04-08 15:30:36 51°15.045 2°53.699 141.9 12 140 10
2009-04-08 15:31:36 51°14.909 2°53.925 126.2 11.6 123 9.9
2009-04-08 15:32:36 51°14.788 2°54.165 127.1 11.5 130 10
2009-04-08 15:33:36 51°14.669 2°54.405 126.8 11.6 127 10.4
2009-04-08 15:34:36 51°14.549 2°54.645 127.5 11.7 130 10.5
2009-04-08 15:35:36 51°14.43 2°54.886 125.2 11.9 128 10.7
2009-04-08 15:36:36 51°14.319 2°55.134 124.8 11 126 10.8
2009-04-08 15:37:36 51°14.218 2°55.323 136 8.9 137 10.9
2009-04-08 15:38:35 51°14.098 2°55.442 155.2 8.7 156 10.7
2009-04-08 15:39:35 51°13.961 2°55.536 156.8 9.2 157 10.9
2009-04-08 15:40:36 51°13.82 2°55.64 152.9 8.3 151 10.3
2009-04-08 15:41:40 51°13.729 2°55.767 129.7 6 130 -999
2009-04-08 15:42:40 51°13.676 2°55.882 117.4 4.8 121 -999
2009-04-08 15:43:40 51°13.662 2°55.953 102.9 0.5 91 -999